METAR Data
IDs: Format: Raw Decoded Include TAF

Data at: 1336 UTC 26 Feb 2021

KONZ 261315Z AUTO 11004KT 10SM CLR M02/M04 A3031 RMK AO2 T10211043